Flight Track Log - Related Links

Times and Time Zones

All times are in EDT time to prevent confusion due to time zone crossing. See the SWA718 flight status page for this flight to view local times or setup timezone preferences in your user account.

Time Position Orientation Groundspeed Altitude Reporting Facility
EDT Latitude Longitude Course Direction KTS MPH feet Rate Location/Type
Mon 11:52:09 PM 41.7719 -87.9006 273° West 222 255 6,300  Level Chicago Center
Mon 11:53:09 PM 41.7711 -87.9956 269° West 252 290 9,700 2,876 Climbing Chicago Center
Mon 11:54:10 PM 41.7681 -88.1242 268° West 300 345 12,100 2,479 Climbing Chicago Center
Mon 11:55:10 PM 41.7644 -88.2436 268° West 324 373 14,700 2,926 Climbing Chicago Center
Mon 11:56:00 PM 41.7333 -88.5250 270° West  Level FlightAware Approximate
Mon 11:56:11 PM 41.7644 -88.3550 270° West 307 353 18,000  Level Chicago Center
Mon 11:57:12 PM 41.7697 -88.4711 274° West 313 360 19,900 1,636 Climbing Chicago Center
Mon 11:58:12 PM 41.7769 -88.5986 274° West 344 396 21,300 1,438 Climbing Chicago Center
Mon 11:59:13 PM 41.7858 -88.7372 275° West 373 429 22,800 1,587 Climbing Chicago Center
Tue 12:00:13 AM 41.7931 -88.8814 274° West 389 448 24,500 1,636 Climbing Chicago Center
Tue 12:01:14 AM 41.7894 -89.0289 268° West 398 458 26,100 1,488 Climbing Chicago Center
Tue 12:02:14 AM 41.7858 -89.1783 268° West 404 465 27,500 1,587 Climbing Chicago Center
Tue 12:03:15 AM 41.7828 -89.3314 269° West 413 475 29,300 1,918 Climbing Chicago Center
Tue 12:04:16 AM 41.7803 -89.4775 269° West 399 459 31,400 1,835 Climbing Chicago Center
Tue 12:05:16 AM 41.7758 -89.6439 268° West 387 445 33,000 1,140 Climbing Chicago Center
Tue 12:06:17 AM 41.7728 -89.7914 268° West 398 458 33,700 893 Climbing Chicago Center
Tue 12:07:17 AM 41.7689 -89.9419 268° West 407 468 34,800 1,091 Climbing Chicago Center
Tue 12:08:18 AM 41.7656 -90.0922 268° West 407 468 35,900 595 Climbing Chicago Center
Tue 12:09:18 AM 41.7600 -90.2422 267° West 407 468 36,000 50 Climbing Chicago Center
Tue 12:10:19 AM 41.7542 -90.3950 267° West 410 472 36,000  Level Chicago Center
Tue 12:11:19 AM 41.7436 -90.5447 265° West 407 468 36,000  Level Chicago Center
Tue 12:12:20 AM 41.7361 -90.6814 266° West 406 467 36,000  Level Chicago Center
Tue 12:13:20 AM 41.7275 -90.8317 266° West 407 468 36,000  Level Chicago Center
Tue 12:14:20 AM 41.7175 -90.9833 265° West 410 472 36,000  Level Chicago Center
Tue 12:15:21 AM 41.6989 -91.1675 262° West 416 479 36,000  Level Chicago Center
Tue 12:16:21 AM 41.6856 -91.3228 263° West 420 483 36,000  Level Chicago Center
Tue 12:17:22 AM 41.6711 -91.4772 263° West 420 483 36,000  Level Chicago Center
Tue 12:18:22 AM 41.6569 -91.6311 263° West 420 483 36,000  Level Chicago Center
Tue 12:19:23 AM 41.6381 -91.7828 261° West 419 482 36,000  Level Chicago Center
Tue 12:20:23 AM 41.6033 -91.9286 252° West 417 480 36,000  Level Chicago Center
Tue 12:21:23 AM 41.5703 -92.0761 253° West 417 480 36,000  Level Chicago Center
Tue 12:22:24 AM 41.5344 -92.2242 252° West 422 486 36,000  Level Chicago Center
Tue 12:23:24 AM 41.4964 -92.3739 251° West 427 491 36,000  Level Chicago Center
Tue 12:24:24 AM 41.4597 -92.5164 251° West 428 493 36,000  Level Chicago Center
Tue 12:25:17 AM 41.4214 -92.6619 251° West 422 486 36,000  Level Minneapolis Center
Tue 12:26:17 AM 41.3825 -92.8053 250° West 418 481 36,000  Level Minneapolis Center
Tue 12:27:18 AM 41.3397 -92.9472 248° West 418 481 36,000  Level Minneapolis Center
Tue 12:28:18 AM 41.2969 -93.0867 248° West 415 478 36,000  Level Minneapolis Center
Tue 12:29:18 AM 41.2506 -93.2253 246° West 415 478 36,000  Level Minneapolis Center
Tue 12:30:19 AM 41.2058 -93.3628 247° West 413 475 36,000  Level Minneapolis Center
Tue 12:31:19 AM 41.1622 -93.5019 247° West 413 475 36,000  Level Minneapolis Center
Tue 12:32:20 AM 41.1197 -93.6375 247° West 406 467 36,000 -50 Level Minneapolis Center
Tue 12:33:20 AM 41.0753 -93.7769 247° West 411 473 35,900 -1,050 Descending Minneapolis Center
Tue 12:34:20 AM 41.0306 -93.9206 248° West 418 481 33,900 -2,479 Descending Minneapolis Center
Tue 12:35:21 AM 40.9906 -94.0619 249° West 420 483 30,900 -3,174 Descending Minneapolis Center
Tue 12:36:21 AM 40.9764 -94.2350 264° West 414 476 27,500 -2,900 Descending Minneapolis Center
Tue 12:37:21 AM 40.9978 -94.3725 282° West 401 461 25,100 -2,331 Descending Minneapolis Center
Tue 12:38:22 AM 41.0158 -94.5086 280° West 386 444 22,800 -2,281 Descending Minneapolis Center
Tue 12:39:22 AM 41.0344 -94.6417 281° West 366 421 20,500 -2,231 Descending Minneapolis Center
Tue 12:40:23 AM 41.0525 -94.7711 281° West 359 413 18,300 -2,359 Descending Minneapolis Center
Tue 12:41:19 AM 41.0817 -94.8872 288° West 346 398 15,900 -2,400 Descending Minneapolis Center
Tue 12:41:43 AM 41.0872 -94.9336 279° West 337 388 15,100 -2,063 Descending Minneapolis Center
Tue 12:42:23 AM 41.0872 -95.0131 270° West 334 384 13,700 -1,967 Descending Minneapolis Center
Tue 12:42:44 AM 41.1125 -95.0467 315° West 316 364 13,100 -1,869 Descending Minneapolis Center
Tue 12:43:24 AM 41.1242 -95.1169 282° West 316 364 11,800 -1,970 Descending Minneapolis Center
Tue 12:43:51 AM 41.1506 -95.1664 305° West 302 348 10,900 -1,600 Descending Minneapolis Center
Tue 12:44:24 AM 41.1600 -95.2153 284° West 302 348 10,200 -1,182 Descending Minneapolis Center
Tue 12:44:57 AM 41.1847 -95.2644 304° West 274 315 9,600 -1,300 Descending Minneapolis Center
Tue 12:45:24 AM 41.1914 -95.3031 283° West 275 316 8,900 -1,672 Descending Minneapolis Center
Tue 12:45:58 AM 41.1997 -95.3569 282° West 247 284 7,900 -1,574 Descending Minneapolis Center
Tue 12:46:25 AM 41.1953 -95.3950 261° West 259 298 7,300 -1,475 Descending Minneapolis Center
Tue 12:46:59 AM 41.2025 -95.4564 279° West 248 285 6,400 -1,500 Descending Minneapolis Center
Tue 12:47:25 AM 41.1997 -95.4864 263° West 252 290 5,800 -1,700 Descending Minneapolis Center
Tue 12:47:59 AM 41.2069 -95.5472 279° West 247 284 4,700 -1,600 Descending Minneapolis Center
Tue 12:48:25 AM 41.2056 -95.5775 267° West 249 287 4,200 -1,377 Descending Minneapolis Center
Tue 12:49:00 AM 41.2131 -95.6381 279° West 249 287 3,300 -1,180 Descending Minneapolis Center
Tue 12:49:26 AM 41.2114 -95.6681 266° West 248 285 3,000 -300 Descending Minneapolis Center
Tue 12:50:00 AM 41.2144 -95.7211 274° West 225 259 3,000  Level Minneapolis Center
Tue 12:50:26 AM 41.2161 -95.7483 275° West 236 272 3,000  Level Minneapolis Center
Tue 12:51:01 AM 41.2192 -95.7897 276° West 180 207 3,000 -100 Level Minneapolis Center
Tue 12:51:26 AM 41.2206 -95.8131 275° West 203 234 2,900 -492 Descending Minneapolis Center
Tue 12:52:02 AM 41.2433 -95.8394 319° Northwest 169 194 2,500 -885 Descending Minneapolis Center
Tue 12:52:27 AM 41.2558 -95.8500 328° Northwest 175 201 2,000 -1,200 Descending Minneapolis Center
Tue 12:53:02 AM 41.2794 -95.8797 317° Northwest 156 180 1,300 -833 Descending Minneapolis Center
Tue 12:53:39 AM 41.2919 -95.8856 341° North 166 191 1,000 -486 Descending Minneapolis Center
Tue 12:55:00 AM 41.3000 -95.8833 331° Northwest  Level FlightAware Approximate

Login

Don't have an account? Register now (free) for customized features, flight alerts, and more!